Charter Quote
Worldwide +1-877-727-2538 Call
Select Language Lang
SAFETY RELIABILITY EXPERIENCE

Moron Airport (SADM) - Jet Charter Services

AIRPORT INFORMATION
ICAOSADM
IATAMOR
LOCATIONBuenos Aires, Argentina
FACILITY TYPEAIRPORT
Runway Length (ft) Width (ft) Surface Type Elevation (ft)
19/01 9350 125 ASP 97.93443

At Paramount Business Jets you can hire chartered private jets to and from Moron Airport with as little as 4 hours of notice. All flights booked via Paramount Business Jets are operated by certified direct air carriers that meet and exceed the FAA part 135 and 121 protocol or a foreign equivalent safety authority. Furthermore, Paramount Business Jets subscribes to ARGUS for their third party safety checks of operators, aircraft, and crews prior each and every flight to and from Moron Airport and worldwide.

  • Quote a trip using Moron Airport or call us 24/7 - 365 days a year at +1-877-727-2538.
Questions? Call +1-877-727-2538

FBOs at Moron Airport, SADM, MOR

NAME ADDRESS PHONE WEBSITE
Munser Fbo    (541) 145-1070   

METAR Weather Data at Moron Airport, SADM, MOR

STATIONSADM
OBSERVEDFri Jul 18, 14:35 UTC
NOWWed Jan 23, 22:41 UTC
AGE39608:06 hr ago
WINDcalm
VISIBILITYgreater than 7 miles
CLOUDSclear skies
TEMP50°F (10°C)
DEWPT46°F (8°C)
HUMIDITY88%
BAROMETER1026 hPa (30.3 in Hg)
METARSADM 181435Z 00000KT CAVOK 10/08 Q1026

Call us on +1-877-727-2538 (24 Hours) to Hire a Private Jet or Get a Quick Quote.

Find Airports Near any Location

Processing
...